»·PEaware :: N4122T KRNM-KONT

N4122T :: KRNM-KONT

FLIGHT INFORMATION

Flight Status: Arrived
Operator: Privately registered:
United States
More flights under this callsign
Pilot: Ulli W. (2180)
Aircraft: CESSNA 172 SKYHAWK
(C172)
More flights by this aircraft type
Origin: KRNM Ramona
United States
Destination: KONT Ontario Intl
United States
More flights between these airports :: More routes between these airports
Route: ROBNN V208 OCN V23 DANAH V363 POXKU V8 PDZ
File this flight plan on PilotEdge
Remarks:
Altitude:
(Current/Filed)
6,000ft
Speed:
(Current/Filed)
0kts
Departed: 12-Nov-20 08:13 AM
Arrived: 12-Nov-20 09:11 AM
Distance/Time
Traveled:
70nm/0:58
Distance/Time
To Go:
Arrived

Flight Plot

Page will automatically refresh every two minutes.


Map Options




Map Legend


Flown Route
Filed Route
Departure Airport
Arrival Airport
Navaid (VOR, NDB)
Fix

Horizontal Profiles

Position Reports

Time Latitude Longitude Heading Altitude Ground
Speed
12-Nov-20 08:07 33.040055 -116.910066 293 1399ft 0kts
12-Nov-20 08:08 33.040055 -116.910066 293 1399ft 0kts
12-Nov-20 08:09 33.040055 -116.910066 293 1399ft 0kts
12-Nov-20 08:10 33.039338 -116.910229 144 1399ft 13kts
12-Nov-20 08:11 33.038493 -116.907472 175 1399ft 3kts
12-Nov-20 08:12 33.038489 -116.907472 175 1399ft 0kts
12-Nov-20 08:13 33.039094 -116.914445 283 1450ft 79kts
12-Nov-20 08:14 33.042910 -116.937293 286 2365ft 75kts
12-Nov-20 08:15 33.060605 -116.947179 336 3230ft 72kts
12-Nov-20 08:16 33.078635 -116.959558 334 3997ft 77kts
12-Nov-20 08:17 33.097351 -116.971148 334 4792ft 76kts
12-Nov-20 08:18 33.116700 -116.981990 340 5533ft 78kts
12-Nov-20 08:19 33.139682 -116.994979 335 5827ft 120kts
12-Nov-20 08:20 33.172413 -117.009215 334 5832ft 123kts
12-Nov-20 08:21 33.196013 -117.037350 298 5786ft 121kts
12-Nov-20 08:22 33.203025 -117.076229 284 5754ft 121kts
12-Nov-20 08:22 33.205981 -117.108356 269 5888ft 113kts
12-Nov-20 08:24 33.211716 -117.152620 283 5968ft 115kts
12-Nov-20 08:24 33.214168 -117.185191 272 5943ft 120kts
12-Nov-20 08:26 33.218250 -117.231539 273 5918ft 121kts
12-Nov-20 08:27 33.221888 -117.271498 280 5904ft 120kts
12-Nov-20 08:27 33.227870 -117.304239 281 5882ft 120kts
12-Nov-20 08:28 33.231759 -117.344057 276 5868ft 120kts
12-Nov-20 08:29 33.234303 -117.384154 280 5845ft 120kts
12-Nov-20 08:30 33.245254 -117.422119 289 5822ft 120kts
12-Nov-20 08:31 33.266271 -117.452415 320 5840ft 119kts
12-Nov-20 08:32 33.290943 -117.478910 317 5859ft 119kts
12-Nov-20 08:33 33.316036 -117.504807 314 5881ft 119kts
12-Nov-20 08:34 33.340489 -117.531529 316 5901ft 119kts
12-Nov-20 08:35 33.364900 -117.558340 320 5893ft 119kts
12-Nov-20 08:36 33.390841 -117.583152 319 5874ft 119kts
12-Nov-20 08:37 33.414129 -117.611551 311 5858ft 119kts
12-Nov-20 08:38 33.435506 -117.641807 318 5846ft 119kts
12-Nov-20 08:39 33.459517 -117.669185 311 5838ft 119kts
12-Nov-20 08:40 33.483344 -117.696918 322 5818ft 119kts
12-Nov-20 08:41 33.514846 -117.707947 346 5842ft 116kts
12-Nov-20 08:42 33.546661 -117.716321 345 5868ft 117kts
12-Nov-20 08:43 33.578467 -117.725108 346 5903ft 117kts
12-Nov-20 08:44 33.610569 -117.731361 352 5932ft 117kts
12-Nov-20 08:45 33.643110 -117.735592 346 5957ft 117kts
12-Nov-20 08:46 33.674874 -117.745891 341 5949ft 118kts
12-Nov-20 08:47 33.707164 -117.755075 349 5919ft 119kts
12-Nov-20 08:48 33.739823 -117.762719 347 5890ft 120kts
12-Nov-20 08:49 33.771443 -117.775667 344 5864ft 120kts
12-Nov-20 08:50 33.804592 -117.776954 3 5837ft 119kts
12-Nov-20 08:51 33.837613 -117.774231 359 5828ft 118kts
12-Nov-20 08:52 33.860695 -117.749893 64 5822ft 118kts
12-Nov-20 08:53 33.873404 -117.713478 70 5866ft 116kts
12-Nov-20 08:54 33.885292 -117.677122 68 5897ft 117kts
12-Nov-20 08:55 33.893377 -117.639212 76 5938ft 117kts
12-Nov-20 08:56 33.902428 -117.601490 73 5974ft 117kts
12-Nov-20 08:57 33.914514 -117.564691 64 5974ft 118kts
12-Nov-20 08:58 33.932854 -117.530843 55 5898ft 121kts
12-Nov-20 08:59 33.951729 -117.497507 52 5865ft 120kts
12-Nov-20 09:00 33.970622 -117.464450 60 5818ft 115kts
12-Nov-20 09:01 33.989440 -117.430891 52 4992ft 118kts
12-Nov-20 09:02 34.008609 -117.398519 55 4766ft 121kts
12-Nov-20 09:03 34.035755 -117.381709 344 4752ft 118kts
12-Nov-20 09:04 34.053712 -117.409696 260 4217ft 117kts
12-Nov-20 09:05 34.055699 -117.448596 274 3336ft 113kts
12-Nov-20 09:06 34.057233 -117.485051 273 2606ft 104kts
12-Nov-20 09:07 34.057110 -117.517670 267 1986ft 93kts
12-Nov-20 09:08 34.056947 -117.547893 274 1535ft 88kts
12-Nov-20 09:09 34.056872 -117.575806 267 1151ft 73kts
12-Nov-20 09:10 34.057504 -117.589566 355 947ft 22kts
12-Nov-20 09:11 34.058545 -117.589623 14 947ft 18kts
12-Nov-20 09:12 34.059694 -117.586782 246 947ft 0kts

Navigation Log

Ident Type
Flight plan parsing failed, navigation log unavailable